This is the latest recevied weather packets stored in our database for station/object IK0TIX. If no packets are shown the sender has not sent any weather packets the latest 10 day(s).
| Time | Temp. | Humidity | Pressure | Rain* | Wind** | Luminosity | Snow |
|---|---|---|---|---|---|---|---|
| 1777361399 | 18.89° C | 64% | 1017.1 hPa | 0 mm | - | - | - |
| 1777360488 | 17.78° C | 67% | 1017.1 hPa | 0 mm | - | - | - |
| 1777358071 | 16.11° C | 71% | 1017.1 hPa | 0 mm | - | - | - |
| 1777357778 | 15.56° C | 70% | 1017.1 hPa | 0 mm | - | - | - |
| 1777357474 | 15.56° C | 71% | 1017.1 hPa | 0 mm | - | - | - |
| 1777357185 | 15.56° C | 72% | 1017.1 hPa | 0 mm | - | - | - |
| 1777356877 | 15° C | 73% | 1017.2 hPa | 0 mm | - | - | - |
| 1777355395 | 14.44° C | 75% | 1017.1 hPa | 0 mm | - | - | - |
| 1777355070 | 14.44° C | 76% | 1017.1 hPa | 0 mm | - | - | - |
| 1777352700 | 13.33° C | 79% | 1016.9 hPa | 0 mm | - | - | - |
| 1777350269 | 13.33° C | 79% | 1016.8 hPa | 0 mm | - | - | - |
| 1777349081 | 13.33° C | 79% | 1016.9 hPa | 0 mm | - | - | - |
| 1777348772 | 13.33° C | 79% | 1016.8 hPa | 0 mm | - | - | - |
| 1777345784 | 13.89° C | 82% | 1016.9 hPa | 0 mm | - | - | - |
| 1777345483 | 13.89° C | 81% | 1016.9 hPa | 0 mm | - | - | - |
| 1777345172 | 13.89° C | 81% | 1017 hPa | 0 mm | - | - | - |
| 1777344891 | 14.44° C | 81% | 1016.9 hPa | 0 mm | - | - | - |
| 1777344575 | 14.44° C | 79% | 1017 hPa | 0 mm | - | - | - |
| 1777343991 | 15° C | 78% | 1017.1 hPa | 0 mm | - | - | - |
| 1777343408 | 15° C | 78% | 1017.1 hPa | 0 mm | - | - | - |
| 1777342174 | 15° C | 79% | 1017.2 hPa | 0 mm | - | - | - |
| 1777341869 | 15.56° C | 79% | 1017.2 hPa | 0 mm | - | - | - |
| 1777340985 | 15.56° C | 79% | 1017.3 hPa | 0 mm | - | - | - |
| 1777338869 | 15.56° C | 79% | 1017.4 hPa | 0 mm | - | - | - |
| 1777337980 | 15.56° C | 80% | 1017.4 hPa | 0 mm | - | - | - |
* Rain latest hour (hover to see other rain measurements)
** Current wind speed in m/s (hover to see current wind gust speed)